sensor_id;sensor_type;location;lat;lon;timestamp;temperature;humidity
31731;DHT22;18310;55.586;12.286;2023-03-14T00:02:03;11.90;63.40
31731;DHT22;18310;55.586;12.286;2023-03-14T00:05:07;14.60;64.90
31731;DHT22;18310;55.586;12.286;2023-03-14T00:08:13;12.80;63.50
31731;DHT22;18310;55.586;12.286;2023-03-14T00:11:17;12.70;63.20
31731;DHT22;18310;55.586;12.286;2023-03-14T00:14:21;12.70;63.80
31731;DHT22;18310;55.586;12.286;2023-03-14T00:17:24;12.60;63.80
31731;DHT22;18310;55.586;12.286;2023-03-14T00:20:27;12.10;63.80
31731;DHT22;18310;55.586;12.286;2023-03-14T00:23:32;12.40;64.10
31731;DHT22;18310;55.586;12.286;2023-03-14T00:26:36;12.40;64.20
31731;DHT22;18310;55.586;12.286;2023-03-14T00:29:39;13.80;65.10
31731;DHT22;18310;55.586;12.286;2023-03-14T00:32:42;12.30;64.40
31731;DHT22;18310;55.586;12.286;2023-03-14T00:35:51;12.20;64.60
31731;DHT22;18310;55.586;12.286;2023-03-14T00:38:56;12.20;64.50
31731;DHT22;18310;55.586;12.286;2023-03-14T00:42:00;12.10;64.60
31731;DHT22;18310;55.586;12.286;2023-03-14T00:45:03;11.10;64.10
31731;DHT22;18310;55.586;12.286;2023-03-14T00:48:09;12.30;64.90
31731;DHT22;18310;55.586;12.286;2023-03-14T00:51:12;12.00;64.80
31731;DHT22;18310;55.586;12.286;2023-03-14T00:54:18;12.30;65.00
31731;DHT22;18310;55.586;12.286;2023-03-14T00:57:21;12.00;64.90
31731;DHT22;18310;55.586;12.286;2023-03-14T01:00:24;12.00;65.10
31731;DHT22;18310;55.586;12.286;2023-03-14T01:03:27;12.00;65.10
31731;DHT22;18310;55.586;12.286;2023-03-14T01:06:30;12.00;65.10
31731;DHT22;18310;55.586;12.286;2023-03-14T01:09:34;14.00;66.20
31731;DHT22;18310;55.586;12.286;2023-03-14T01:12:37;11.90;65.00
31731;DHT22;18310;55.586;12.286;2023-03-14T01:15:40;11.90;65.00
31731;DHT22;18310;55.586;12.286;2023-03-14T01:18:43;11.90;65.00
31731;DHT22;18310;55.586;12.286;2023-03-14T01:21:47;11.90;65.10
31731;DHT22;18310;55.586;12.286;2023-03-14T01:24:52;10.90;64.50
31731;DHT22;18310;55.586;12.286;2023-03-14T01:27:55;11.80;65.10
31731;DHT22;18310;55.586;12.286;2023-03-14T01:31:01;11.80;65.10
31731;DHT22;18310;55.586;12.286;2023-03-14T01:34:05;11.80;65.10
31731;DHT22;18310;55.586;12.286;2023-03-14T01:37:08;11.80;65.10
31731;DHT22;18310;55.586;12.286;2023-03-14T01:40:14;11.80;65.00
31731;DHT22;18310;55.586;12.286;2023-03-14T01:43:19;11.80;65.00
31731;DHT22;18310;55.586;12.286;2023-03-14T01:46:30;11.80;65.00
31731;DHT22;18310;55.586;12.286;2023-03-14T01:49:37;11.70;64.90
31731;DHT22;18310;55.586;12.286;2023-03-14T01:52:41;11.70;65.00
31731;DHT22;18310;55.586;12.286;2023-03-14T01:55:48;12.90;65.30
31731;DHT22;18310;55.586;12.286;2023-03-14T01:58:52;11.70;65.20
31731;DHT22;18310;55.586;12.286;2023-03-14T02:01:55;11.60;65.20
31731;DHT22;18310;55.586;12.286;2023-03-14T02:04:58;11.60;64.80
31731;DHT22;18310;55.586;12.286;2023-03-14T02:08:02;11.60;65.50
31731;DHT22;18310;55.586;12.286;2023-03-14T02:11:10;11.60;65.50
31731;DHT22;18310;55.586;12.286;2023-03-14T02:14:16;11.70;65.60
31731;DHT22;18310;55.586;12.286;2023-03-14T02:17:27;11.70;65.60
31731;DHT22;18310;55.586;12.286;2023-03-14T02:20:32;13.50;66.60
31731;DHT22;18310;55.586;12.286;2023-03-14T02:23:40;10.50;64.90
31731;DHT22;18310;55.586;12.286;2023-03-14T02:30:13;11.90;65.30
31731;DHT22;18310;55.586;12.286;2023-03-14T02:33:19;11.90;65.20
31731;DHT22;18310;55.586;12.286;2023-03-14T02:36:23;12.00;65.30
31731;DHT22;18310;55.586;12.286;2023-03-14T02:39:29;12.00;65.20
31731;DHT22;18310;55.586;12.286;2023-03-14T02:42:38;12.00;65.30
31731;DHT22;18310;55.586;12.286;2023-03-14T02:45:42;12.10;65.20
31731;DHT22;18310;55.586;12.286;2023-03-14T02:48:47;12.10;65.10
31731;DHT22;18310;55.586;12.286;2023-03-14T02:51:53;12.10;65.00
31731;DHT22;18310;55.586;12.286;2023-03-14T02:54:56;12.10;65.00
31731;DHT22;18310;55.586;12.286;2023-03-14T02:58:00;12.00;64.50
31731;DHT22;18310;55.586;12.286;2023-03-14T03:01:03;12.00;64.90
31731;DHT22;18310;55.586;12.286;2023-03-14T03:04:07;12.00;65.10
31731;DHT22;18310;55.586;12.286;2023-03-14T03:07:11;12.10;65.30
31731;DHT22;18310;55.586;12.286;2023-03-14T03:10:14;12.10;65.40
31731;DHT22;18310;55.586;12.286;2023-03-14T03:13:18;12.10;65.40
31731;DHT22;18310;55.586;12.286;2023-03-14T03:16:22;12.10;65.10
31731;DHT22;18310;55.586;12.286;2023-03-14T03:19:25;12.10;66.20
31731;DHT22;18310;55.586;12.286;2023-03-14T03:22:28;12.10;65.50
31731;DHT22;18310;55.586;12.286;2023-03-14T03:25:31;12.20;65.50
31731;DHT22;18310;55.586;12.286;2023-03-14T03:28:37;12.50;65.80
31731;DHT22;18310;55.586;12.286;2023-03-14T03:31:40;12.20;65.70
31731;DHT22;18310;55.586;12.286;2023-03-14T03:34:43;12.80;66.00
31731;DHT22;18310;55.586;12.286;2023-03-14T03:37:46;12.50;65.80
31731;DHT22;18310;55.586;12.286;2023-03-14T03:40:49;12.30;65.70
31731;DHT22;18310;55.586;12.286;2023-03-14T03:43:53;12.30;65.60
31731;DHT22;18310;55.586;12.286;2023-03-14T03:46:56;14.30;66.70
31731;DHT22;18310;55.586;12.286;2023-03-14T03:49:59;12.30;65.50
31731;DHT22;18310;55.586;12.286;2023-03-14T03:53:02;12.30;65.40
31731;DHT22;18310;55.586;12.286;2023-03-14T03:56:06;12.20;65.40
31731;DHT22;18310;55.586;12.286;2023-03-14T03:59:10;12.40;65.70
31731;DHT22;18310;55.586;12.286;2023-03-14T04:02:13;12.30;65.00
31731;DHT22;18310;55.586;12.286;2023-03-14T04:05:17;12.10;65.40
31731;DHT22;18310;55.586;12.286;2023-03-14T04:08:20;12.00;65.60
31731;DHT22;18310;55.586;12.286;2023-03-14T04:11:23;11.90;65.20
31731;DHT22;18310;55.586;12.286;2023-03-14T04:14:27;13.70;67.10
31731;DHT22;18310;55.586;12.286;2023-03-14T04:17:30;11.90;66.10
31731;DHT22;18310;55.586;12.286;2023-03-14T04:20:33;12.00;66.30
31731;DHT22;18310;55.586;12.286;2023-03-14T04:23:37;12.00;66.40
31731;DHT22;18310;55.586;12.286;2023-03-14T04:26:40;12.00;66.40
31731;DHT22;18310;55.586;12.286;2023-03-14T04:29:44;12.10;66.50
31731;DHT22;18310;55.586;12.286;2023-03-14T04:32:47;12.10;66.10
31731;DHT22;18310;55.586;12.286;2023-03-14T04:35:53;12.10;66.50
31731;DHT22;18310;55.586;12.286;2023-03-14T04:38:57;12.80;66.90
31731;DHT22;18310;55.586;12.286;2023-03-14T04:42:02;12.20;66.50
31731;DHT22;18310;55.586;12.286;2023-03-14T04:45:07;14.10;67.50
31731;DHT22;18310;55.586;12.286;2023-03-14T04:48:10;12.30;66.50
31731;DHT22;18310;55.586;12.286;2023-03-14T04:51:13;10.30;65.20
31731;DHT22;18310;55.586;12.286;2023-03-14T04:54:17;12.30;66.80
31731;DHT22;18310;55.586;12.286;2023-03-14T04:57:20;12.40;66.20
31731;DHT22;18310;55.586;12.286;2023-03-14T05:00:24;12.40;66.10
31731;DHT22;18310;55.586;12.286;2023-03-14T05:03:27;12.40;66.00
31731;DHT22;18310;55.586;12.286;2023-03-14T05:06:31;12.40;66.00
31731;DHT22;18310;55.586;12.286;2023-03-14T05:09:34;12.50;66.00
31731;DHT22;18310;55.586;12.286;2023-03-14T05:12:37;12.50;66.10
31731;DHT22;18310;55.586;12.286;2023-03-14T05:15:41;12.50;65.90
31731;DHT22;18310;55.586;12.286;2023-03-14T05:18:44;12.60;65.80
31731;DHT22;18310;55.586;12.286;2023-03-14T05:21:47;12.60;65.70
31731;DHT22;18310;55.586;12.286;2023-03-14T05:24:50;14.60;66.80
31731;DHT22;18310;55.586;12.286;2023-03-14T05:27:56;13.80;66.40
31731;DHT22;18310;55.586;12.286;2023-03-14T05:31:01;12.70;65.70
31731;DHT22;18310;55.586;12.286;2023-03-14T05:34:10;12.70;65.70
31731;DHT22;18310;55.586;12.286;2023-03-14T05:37:13;11.60;64.70
31731;DHT22;18310;55.586;12.286;2023-03-14T05:40:16;12.70;65.20
31731;DHT22;18310;55.586;12.286;2023-03-14T05:43:19;12.70;65.20
31731;DHT22;18310;55.586;12.286;2023-03-14T05:46:23;12.40;64.90
31731;DHT22;18310;55.586;12.286;2023-03-14T05:49:26;11.00;64.10
31731;DHT22;18310;55.586;12.286;2023-03-14T05:52:29;12.50;65.00
31731;DHT22;18310;55.586;12.286;2023-03-14T05:55:32;12.50;65.10
31731;DHT22;18310;55.586;12.286;2023-03-14T05:58:36;12.40;65.10
31731;DHT22;18310;55.586;12.286;2023-03-14T06:01:41;12.60;65.30
31731;DHT22;18310;55.586;12.286;2023-03-14T06:04:44;12.30;65.10
31731;DHT22;18310;55.586;12.286;2023-03-14T06:07:47;12.30;65.30
31731;DHT22;18310;55.586;12.286;2023-03-14T06:10:50;12.30;65.50
31731;DHT22;18310;55.586;12.286;2023-03-14T06:13:53;12.30;65.70
31731;DHT22;18310;55.586;12.286;2023-03-14T06:16:57;14.40;67.00
31731;DHT22;18310;55.586;12.286;2023-03-14T06:20:01;10.70;65.00
31731;DHT22;18310;55.586;12.286;2023-03-14T06:23:04;12.30;65.90
31731;DHT22;18310;55.586;12.286;2023-03-14T06:26:07;12.40;66.00
31731;DHT22;18310;55.586;12.286;2023-03-14T06:29:10;12.40;66.20
31731;DHT22;18310;55.586;12.286;2023-03-14T06:32:16;12.50;66.50
31731;DHT22;18310;55.586;12.286;2023-03-14T06:35:19;12.50;66.50
31731;DHT22;18310;55.586;12.286;2023-03-14T06:38:22;14.50;67.80
31731;DHT22;18310;55.586;12.286;2023-03-14T06:41:25;12.70;66.80
31731;DHT22;18310;55.586;12.286;2023-03-14T06:44:28;13.00;67.20
31731;DHT22;18310;55.586;12.286;2023-03-14T06:47:32;12.70;67.10
31731;DHT22;18310;55.586;12.286;2023-03-14T06:50:35;12.70;67.30
31731;DHT22;18310;55.586;12.286;2023-03-14T06:53:39;12.80;67.10
31731;DHT22;18310;55.586;12.286;2023-03-14T06:56:41;12.90;67.10
31731;DHT22;18310;55.586;12.286;2023-03-14T06:59:44;12.20;66.30
31731;DHT22;18310;55.586;12.286;2023-03-14T07:02:49;13.00;67.30
31731;DHT22;18310;55.586;12.286;2023-03-14T07:05:52;13.10;67.50
31731;DHT22;18310;55.586;12.286;2023-03-14T07:08:55;12.90;67.20
31731;DHT22;18310;55.586;12.286;2023-03-14T07:11:59;13.10;67.40
31731;DHT22;18310;55.586;12.286;2023-03-14T07:15:02;12.70;67.30
31731;DHT22;18310;55.586;12.286;2023-03-14T07:18:19;13.20;67.60
31731;DHT22;18310;55.586;12.286;2023-03-14T07:21:22;14.00;68.20
31731;DHT22;18310;55.586;12.286;2023-03-14T07:24:25;14.30;68.30
31731;DHT22;18310;55.586;12.286;2023-03-14T07:27:28;13.30;67.70
31731;DHT22;18310;55.586;12.286;2023-03-14T07:30:31;13.30;67.70
31731;DHT22;18310;55.586;12.286;2023-03-14T07:33:36;13.40;68.00
31731;DHT22;18310;55.586;12.286;2023-03-14T07:36:39;13.00;67.40
31731;DHT22;18310;55.586;12.286;2023-03-14T07:39:42;12.10;66.60
31731;DHT22;18310;55.586;12.286;2023-03-14T07:42:45;13.40;67.70
31731;DHT22;18310;55.586;12.286;2023-03-14T07:45:48;12.40;67.10
31731;DHT22;18310;55.586;12.286;2023-03-14T07:48:58;11.90;66.80
31731;DHT22;18310;55.586;12.286;2023-03-14T07:52:01;13.50;68.00
31731;DHT22;18310;55.586;12.286;2023-03-14T07:55:04;12.50;67.40
31731;DHT22;18310;55.586;12.286;2023-03-14T07:58:08;13.50;67.60
31731;DHT22;18310;55.586;12.286;2023-03-14T08:01:11;14.50;68.30
31731;DHT22;18310;55.586;12.286;2023-03-14T08:04:16;13.10;67.40
31731;DHT22;18310;55.586;12.286;2023-03-14T08:07:19;14.80;68.40
31731;DHT22;18310;55.586;12.286;2023-03-14T08:10:22;13.50;67.80
31731;DHT22;18310;55.586;12.286;2023-03-14T08:13:25;13.60;67.90
31731;DHT22;18310;55.586;12.286;2023-03-14T08:16:28;13.60;67.30
31731;DHT22;18310;55.586;12.286;2023-03-14T08:19:32;13.60;67.80
31731;DHT22;18310;55.586;12.286;2023-03-14T08:22:35;13.70;68.20
31731;DHT22;18310;55.586;12.286;2023-03-14T08:25:38;13.50;67.50
31731;DHT22;18310;55.586;12.286;2023-03-14T08:28:41;13.80;67.70
31731;DHT22;18310;55.586;12.286;2023-03-14T08:31:44;13.80;68.20
31731;DHT22;18310;55.586;12.286;2023-03-14T08:34:49;13.80;68.00
31731;DHT22;18310;55.586;12.286;2023-03-14T08:37:52;13.50;67.70
31731;DHT22;18310;55.586;12.286;2023-03-14T08:40:55;13.90;68.00
31731;DHT22;18310;55.586;12.286;2023-03-14T08:43:59;13.90;67.50
31731;DHT22;18310;55.586;12.286;2023-03-14T08:47:02;13.90;68.00
31731;DHT22;18310;55.586;12.286;2023-03-14T08:50:08;13.30;67.50
31731;DHT22;18310;55.586;12.286;2023-03-14T08:53:17;11.60;66.40
31731;DHT22;18310;55.586;12.286;2023-03-14T08:56:20;13.70;65.50
31731;DHT22;18310;55.586;12.286;2023-03-14T08:59:26;11.40;59.80
31731;DHT22;18310;55.586;12.286;2023-03-14T09:02:29;14.80;60.20
31731;DHT22;18310;55.586;12.286;2023-03-14T09:05:40;13.10;60.50
31731;DHT22;18310;55.586;12.286;2023-03-14T09:08:43;11.70;61.90
31731;DHT22;18310;55.586;12.286;2023-03-14T09:11:53;9.10;63.40
31731;DHT22;18310;55.586;12.286;2023-03-14T09:15:03;10.60;65.00
31731;DHT22;18310;55.586;12.286;2023-03-14T09:18:14;10.30;66.50
31731;DHT22;18310;55.586;12.286;2023-03-14T09:21:24;9.90;67.00
31731;DHT22;18310;55.586;12.286;2023-03-14T09:24:27;11.10;68.00
31731;DHT22;18310;55.586;12.286;2023-03-14T09:27:37;9.30;67.20
31731;DHT22;18310;55.586;12.286;2023-03-14T09:30:47;9.00;67.50
31731;DHT22;18310;55.586;12.286;2023-03-14T09:33:51;10.80;69.40
31731;DHT22;18310;55.586;12.286;2023-03-14T09:37:01;8.30;68.30
31731;DHT22;18310;55.586;12.286;2023-03-14T09:40:12;8.40;68.80
31731;DHT22;18310;55.586;12.286;2023-03-14T09:43:16;8.20;69.90
31731;DHT22;18310;55.586;12.286;2023-03-14T09:46:26;8.20;70.50
31731;DHT22;18310;55.586;12.286;2023-03-14T09:49:30;8.10;71.00
31731;DHT22;18310;55.586;12.286;2023-03-14T09:52:42;8.10;71.00
31731;DHT22;18310;55.586;12.286;2023-03-14T09:55:56;8.10;71.40
31731;DHT22;18310;55.586;12.286;2023-03-14T09:59:01;8.10;72.30
31731;DHT22;18310;55.586;12.286;2023-03-14T10:02:16;8.10;72.30
31731;DHT22;18310;55.586;12.286;2023-03-14T10:05:28;8.30;71.50
31731;DHT22;18310;55.586;12.286;2023-03-14T10:08:40;8.10;70.90
31731;DHT22;18310;55.586;12.286;2023-03-14T10:11:50;8.10;71.20
31731;DHT22;18310;55.586;12.286;2023-03-14T10:14:56;8.10;71.20
31731;DHT22;18310;55.586;12.286;2023-03-14T10:18:09;8.20;70.80
31731;DHT22;18310;55.586;12.286;2023-03-14T10:21:28;8.20;70.50
31731;DHT22;18310;55.586;12.286;2023-03-14T10:24:42;8.20;69.80
31731;DHT22;18310;55.586;12.286;2023-03-14T10:27:56;8.10;69.70
31731;DHT22;18310;55.586;12.286;2023-03-14T10:30:59;8.10;70.10
31731;DHT22;18310;55.586;12.286;2023-03-14T10:34:12;8.10;70.00
31731;DHT22;18310;55.586;12.286;2023-03-14T10:37:25;7.20;69.20
31731;DHT22;18310;55.586;12.286;2023-03-14T10:40:31;8.00;69.70
31731;DHT22;18310;55.586;12.286;2023-03-14T10:43:43;7.90;70.10
31731;DHT22;18310;55.586;12.286;2023-03-14T10:46:55;7.90;69.40
31731;DHT22;18310;55.586;12.286;2023-03-14T10:50:18;8.70;69.40
31731;DHT22;18310;55.586;12.286;2023-03-14T10:53:34;7.90;68.50
31731;DHT22;18310;55.586;12.286;2023-03-14T10:56:57;7.80;68.10
31731;DHT22;18310;55.586;12.286;2023-03-14T11:00:09;7.20;67.50
31731;DHT22;18310;55.586;12.286;2023-03-14T11:03:25;7.90;68.60
31731;DHT22;18310;55.586;12.286;2023-03-14T11:06:39;7.90;68.10
31731;DHT22;18310;55.586;12.286;2023-03-14T11:09:55;7.90;67.90
31731;DHT22;18310;55.586;12.286;2023-03-14T11:13:07;7.50;67.20
31731;DHT22;18310;55.586;12.286;2023-03-14T11:16:25;7.90;68.00
31731;DHT22;18310;55.586;12.286;2023-03-14T11:19:49;7.90;68.10
31731;DHT22;18310;55.586;12.286;2023-03-14T11:23:01;8.00;67.40
31731;DHT22;18310;55.586;12.286;2023-03-14T11:26:19;8.00;67.30
31731;DHT22;18310;55.586;12.286;2023-03-14T11:29:37;8.20;67.80
31731;DHT22;18310;55.586;12.286;2023-03-14T11:32:44;9.80;68.70
31731;DHT22;18310;55.586;12.286;2023-03-14T11:35:57;8.40;68.40
31731;DHT22;18310;55.586;12.286;2023-03-14T11:39:07;8.60;67.30
31731;DHT22;18310;55.586;12.286;2023-03-14T11:42:30;8.70;67.50
31731;DHT22;18310;55.586;12.286;2023-03-14T11:45:43;10.80;68.10
31731;DHT22;18310;55.586;12.286;2023-03-14T11:48:57;9.70;67.00
31731;DHT22;18310;55.586;12.286;2023-03-14T11:52:11;9.10;65.30
31731;DHT22;18310;55.586;12.286;2023-03-14T11:55:20;9.20;65.90
31731;DHT22;18310;55.586;12.286;2023-03-14T11:58:35;9.20;65.60
31731;DHT22;18310;55.586;12.286;2023-03-14T12:01:56;9.30;64.90
31731;DHT22;18310;55.586;12.286;2023-03-14T12:05:22;9.50;64.70
31731;DHT22;18310;55.586;12.286;2023-03-14T12:08:44;9.40;64.40
31731;DHT22;18310;55.586;12.286;2023-03-14T12:11:57;9.50;63.70
31731;DHT22;18310;55.586;12.286;2023-03-14T12:15:04;9.40;63.70
31731;DHT22;18310;55.586;12.286;2023-03-14T12:18:18;9.70;61.80
31731;DHT22;18310;55.586;12.286;2023-03-14T12:21:43;9.50;61.40
31731;DHT22;18310;55.586;12.286;2023-03-14T12:24:50;9.80;60.80
31731;DHT22;18310;55.586;12.286;2023-03-14T12:28:04;9.80;60.90
31731;DHT22;18310;55.586;12.286;2023-03-14T12:31:41;9.80;60.10
31731;DHT22;18310;55.586;12.286;2023-03-14T12:34:55;11.60;61.70
31731;DHT22;18310;55.586;12.286;2023-03-14T12:38:05;9.90;58.50
31731;DHT22;18310;55.586;12.286;2023-03-14T12:41:14;11.70;59.40
31731;DHT22;18310;55.586;12.286;2023-03-14T12:44:39;11.50;59.50
31731;DHT22;18310;55.586;12.286;2023-03-14T12:47:54;10.20;57.00
31731;DHT22;18310;55.586;12.286;2023-03-14T12:51:11;11.20;57.00
31731;DHT22;18310;55.586;12.286;2023-03-14T12:54:27;10.30;57.90
31731;DHT22;18310;55.586;12.286;2023-03-14T12:57:42;9.90;56.20
31731;DHT22;18310;55.586;12.286;2023-03-14T13:00:56;10.40;56.20
31731;DHT22;18310;55.586;12.286;2023-03-14T13:04:09;10.40;56.00
31731;DHT22;18310;55.586;12.286;2023-03-14T13:11:09;10.30;53.70
31731;DHT22;18310;55.586;12.286;2023-03-14T13:14:20;10.30;55.10
31731;DHT22;18310;55.586;12.286;2023-03-14T13:17:32;10.30;55.50
31731;DHT22;18310;55.586;12.286;2023-03-14T13:20:44;11.40;55.60
31731;DHT22;18310;55.586;12.286;2023-03-14T13:23:56;11.60;54.70
31731;DHT22;18310;55.586;12.286;2023-03-14T13:27:08;10.30;52.30
31731;DHT22;18310;55.586;12.286;2023-03-14T13:30:21;10.20;53.50
31731;DHT22;18310;55.586;12.286;2023-03-14T13:33:32;10.20;53.80
31731;DHT22;18310;55.586;12.286;2023-03-14T13:36:43;10.20;53.50
31731;DHT22;18310;55.586;12.286;2023-03-14T13:39:54;10.20;53.30
31731;DHT22;18310;55.586;12.286;2023-03-14T13:43:09;10.20;52.10
31731;DHT22;18310;55.586;12.286;2023-03-14T13:46:22;10.10;53.00
31731;DHT22;18310;55.586;12.286;2023-03-14T13:49:27;10.10;51.70
31731;DHT22;18310;55.586;12.286;2023-03-14T13:52:40;10.20;53.30
31731;DHT22;18310;55.586;12.286;2023-03-14T13:55:52;12.00;53.00
31731;DHT22;18310;55.586;12.286;2023-03-14T13:59:02;10.10;51.50
31731;DHT22;18310;55.586;12.286;2023-03-14T14:02:12;10.00;51.50
31731;DHT22;18310;55.586;12.286;2023-03-14T14:05:19;9.70;52.00
31731;DHT22;18310;55.586;12.286;2023-03-14T14:08:30;10.00;52.50
31731;DHT22;18310;55.586;12.286;2023-03-14T14:11:43;10.30;53.40
31731;DHT22;18310;55.586;12.286;2023-03-14T14:15:10;10.10;53.30
31731;DHT22;18310;55.586;12.286;2023-03-14T14:18:23;10.20;52.40
31731;DHT22;18310;55.586;12.286;2023-03-14T14:21:28;10.20;52.00
31731;DHT22;18310;55.586;12.286;2023-03-14T14:24:39;10.20;51.40
31731;DHT22;18310;55.586;12.286;2023-03-14T14:27:51;11.40;51.60
31731;DHT22;18310;55.586;12.286;2023-03-14T14:31:00;10.80;50.00
31731;DHT22;18310;55.586;12.286;2023-03-14T14:34:17;10.20;50.20
31731;DHT22;18310;55.586;12.286;2023-03-14T14:37:22;11.80;51.80
31731;DHT22;18310;55.586;12.286;2023-03-14T14:40:34;10.20;52.10
31731;DHT22;18310;55.586;12.286;2023-03-14T14:43:45;10.20;50.30
31731;DHT22;18310;55.586;12.286;2023-03-14T14:46:48;10.20;50.50
31731;DHT22;18310;55.586;12.286;2023-03-14T14:49:59;10.20;50.40
31731;DHT22;18310;55.586;12.286;2023-03-14T14:53:19;10.20;49.40
31731;DHT22;18310;55.586;12.286;2023-03-14T14:56:34;10.20;50.40
31731;DHT22;18310;55.586;12.286;2023-03-14T14:59:47;9.70;50.00
31731;DHT22;18310;55.586;12.286;2023-03-14T15:02:58;10.40;49.80
31731;DHT22;18310;55.586;12.286;2023-03-14T15:06:02;11.60;50.10
31731;DHT22;18310;55.586;12.286;2023-03-14T15:09:11;10.10;49.40
31731;DHT22;18310;55.586;12.286;2023-03-14T15:12:21;9.10;48.60
31731;DHT22;18310;55.586;12.286;2023-03-14T15:15:27;10.30;50.60
31731;DHT22;18310;55.586;12.286;2023-03-14T15:18:36;10.10;49.90
31731;DHT22;18310;55.586;12.286;2023-03-14T15:21:46;10.10;50.00
31731;DHT22;18310;55.586;12.286;2023-03-14T15:24:50;10.10;50.20
31731;DHT22;18310;55.586;12.286;2023-03-14T15:28:00;10.50;48.60
31731;DHT22;18310;55.586;12.286;2023-03-14T15:31:11;10.10;49.30
31731;DHT22;18310;55.586;12.286;2023-03-14T15:34:16;10.10;47.30
31731;DHT22;18310;55.586;12.286;2023-03-14T15:37:25;10.10;47.30
31731;DHT22;18310;55.586;12.286;2023-03-14T15:40:36;10.00;47.10
31731;DHT22;18310;55.586;12.286;2023-03-14T15:43:45;10.00;48.20
31731;DHT22;18310;55.586;12.286;2023-03-14T15:46:58;11.40;48.00
31731;DHT22;18310;55.586;12.286;2023-03-14T15:50:01;8.90;48.60
31731;DHT22;18310;55.586;12.286;2023-03-14T15:53:11;9.90;49.10
31731;DHT22;18310;55.586;12.286;2023-03-14T15:56:20;9.90;49.10
31731;DHT22;18310;55.586;12.286;2023-03-14T15:59:26;9.90;49.50
31731;DHT22;18310;55.586;12.286;2023-03-14T16:02:37;9.90;50.50
31731;DHT22;18310;55.586;12.286;2023-03-14T16:05:49;9.90;48.70
31731;DHT22;18310;55.586;12.286;2023-03-14T16:08:52;9.90;48.60
31731;DHT22;18310;55.586;12.286;2023-03-14T16:12:01;9.90;48.70
31731;DHT22;18310;55.586;12.286;2023-03-14T16:15:06;10.00;48.90
31731;DHT22;18310;55.586;12.286;2023-03-14T16:18:19;9.80;48.80
31731;DHT22;18310;55.586;12.286;2023-03-14T16:21:28;9.80;50.10
31731;DHT22;18310;55.586;12.286;2023-03-14T16:24:38;9.80;49.40
31731;DHT22;18310;55.586;12.286;2023-03-14T16:27:42;9.80;49.30
31731;DHT22;18310;55.586;12.286;2023-03-14T16:31:10;11.40;51.00
31731;DHT22;18310;55.586;12.286;2023-03-14T16:34:22;9.70;50.00
31731;DHT22;18310;55.586;12.286;2023-03-14T16:37:31;9.70;50.30
31731;DHT22;18310;55.586;12.286;2023-03-14T16:40:35;9.60;50.60
31731;DHT22;18310;55.586;12.286;2023-03-14T16:43:44;9.60;50.10
31731;DHT22;18310;55.586;12.286;2023-03-14T16:46:58;9.50;50.10
31731;DHT22;18310;55.586;12.286;2023-03-14T16:50:12;9.50;50.30
31731;DHT22;18310;55.586;12.286;2023-03-14T16:53:16;9.40;50.50
31731;DHT22;18310;55.586;12.286;2023-03-14T16:56:25;9.40;50.90
31731;DHT22;18310;55.586;12.286;2023-03-14T16:59:35;9.30;51.10
31731;DHT22;18310;55.586;12.286;2023-03-14T17:02:38;9.20;50.40
31731;DHT22;18310;55.586;12.286;2023-03-14T17:05:50;9.10;50.70
31731;DHT22;18310;55.586;12.286;2023-03-14T17:08:54;9.10;50.60
31731;DHT22;18310;55.586;12.286;2023-03-14T17:12:06;10.80;52.30
31731;DHT22;18310;55.586;12.286;2023-03-14T17:15:15;8.90;51.80
31731;DHT22;18310;55.586;12.286;2023-03-14T17:18:25;8.80;52.00
31731;DHT22;18310;55.586;12.286;2023-03-14T17:21:31;8.70;52.20
31731;DHT22;18310;55.586;12.286;2023-03-14T17:24:41;8.20;52.20
31731;DHT22;18310;55.586;12.286;2023-03-14T17:27:44;8.60;52.60
31731;DHT22;18310;55.586;12.286;2023-03-14T17:31:01;8.60;52.90
31731;DHT22;18310;55.586;12.286;2023-03-14T17:34:12;8.50;53.00
31731;DHT22;18310;55.586;12.286;2023-03-14T17:37:16;6.90;52.30
31731;DHT22;18310;55.586;12.286;2023-03-14T17:40:26;8.40;53.20
31731;DHT22;18310;55.586;12.286;2023-03-14T17:43:43;8.30;53.50
31731;DHT22;18310;55.586;12.286;2023-03-14T17:46:47;8.30;53.60
31731;DHT22;18310;55.586;12.286;2023-03-14T17:49:57;6.60;52.90
31731;DHT22;18310;55.586;12.286;2023-03-14T17:53:06;8.10;53.90
31731;DHT22;18310;55.586;12.286;2023-03-14T17:56:16;8.60;54.30
31731;DHT22;18310;55.586;12.286;2023-03-14T17:59:26;8.00;54.20
31731;DHT22;18310;55.586;12.286;2023-03-14T18:02:29;7.90;54.30
31731;DHT22;18310;55.586;12.286;2023-03-14T18:05:38;7.80;54.50
31731;DHT22;18310;55.586;12.286;2023-03-14T18:08:43;7.70;54.60
31731;DHT22;18310;55.586;12.286;2023-03-14T18:11:54;7.60;54.60
31731;DHT22;18310;55.586;12.286;2023-03-14T18:15:08;9.60;55.90
31731;DHT22;18310;55.586;12.286;2023-03-14T18:18:20;7.60;55.00
31731;DHT22;18310;55.586;12.286;2023-03-14T18:21:30;9.80;56.30
31731;DHT22;18310;55.586;12.286;2023-03-14T18:24:37;6.30;54.60
31731;DHT22;18310;55.586;12.286;2023-03-14T18:27:48;6.00;54.40
31731;DHT22;18310;55.586;12.286;2023-03-14T18:30:59;7.30;55.30
31731;DHT22;18310;55.586;12.286;2023-03-14T18:34:10;8.10;55.60
31731;DHT22;18310;55.586;12.286;2023-03-14T18:37:14;8.90;56.10
31731;DHT22;18310;55.586;12.286;2023-03-14T18:40:26;7.20;55.30
31731;DHT22;18310;55.586;12.286;2023-03-14T18:43:36;8.70;56.20
31731;DHT22;18310;55.586;12.286;2023-03-14T18:46:39;9.20;56.60
31731;DHT22;18310;55.586;12.286;2023-03-14T18:49:49;7.10;55.50
31731;DHT22;18310;55.586;12.286;2023-03-14T18:52:52;9.10;56.70
31731;DHT22;18310;55.586;12.286;2023-03-14T18:56:04;6.70;55.50
31731;DHT22;18310;55.586;12.286;2023-03-14T18:59:14;7.00;55.70
31731;DHT22;18310;55.586;12.286;2023-03-14T19:02:18;6.90;55.80
31731;DHT22;18310;55.586;12.286;2023-03-14T19:05:27;8.40;56.60
31731;DHT22;18310;55.586;12.286;2023-03-14T19:08:38;6.80;55.90
31731;DHT22;18310;55.586;12.286;2023-03-14T19:11:43;5.40;55.30
31731;DHT22;18310;55.586;12.286;2023-03-14T19:14:53;6.80;56.20
31731;DHT22;18310;55.586;12.286;2023-03-14T19:17:56;6.80;56.40
31731;DHT22;18310;55.586;12.286;2023-03-14T19:21:07;6.60;56.50
31731;DHT22;18310;55.586;12.286;2023-03-14T19:24:18;6.70;56.70
31731;DHT22;18310;55.586;12.286;2023-03-14T19:27:24;6.70;56.70
31731;DHT22;18310;55.586;12.286;2023-03-14T19:30:34;5.90;56.70
31731;DHT22;18310;55.586;12.286;2023-03-14T19:33:44;6.70;57.20
31731;DHT22;18310;55.586;12.286;2023-03-14T19:36:54;6.90;57.40
31731;DHT22;18310;55.586;12.286;2023-03-14T19:40:03;6.60;56.90
31731;DHT22;18310;55.586;12.286;2023-03-14T19:43:17;6.90;57.50